Sanish, North Dakota
Current Conditions -  °F | °C
As of 2:55 PM on Saturday 25 Oct 2014 (Local Time) from K08D Reporting Station
Broken Clouds Broken Clouds  
Wind Chill: 57°   Ceiling: 8000
Heat Index: 57°   Visibility: 8mi
Dew Point: 28°   Wind: 10mph
Humidity: 33%   Direction: 170°S
Pressure: 30.06"   Gusts: NA
Location:  47.9603°N, 102.491°W
Report Text: K08D 251955Z AUTO 17009KT 8SM BKN080 14/M02 A3006 RMK AO2
Loading
Personal Weather Stations






























Interactive Weather Map
Tropical Storm Tracking
New forecast layout! Learn more

10-Day Weather Forecast

Advertisements
Track Severe Weather on mobile